Time;durP1;ratioP1;P1;durP2;ratioP2;P2;SDS_P1;SDS_P2;PMS_P1;PMS_P2;Temp;Humidity;BMP_temperature;BMP_pressure;BME280_temperature;BME280_humidity;BME280_pressure;Samples;Min_cycle;Max_cycle;Signal;HPM_P1;HPM_P2
2022/12/18 00:00:27;;;;;;;26.30;13.53;;;;;;;-9.17;100.00;100433.94;4930342;29;20205;-78
2022/12/18 00:02:56;;;;;;;28.97;13.13;;;;;;;-9.14;100.00;100435.78;4931975;29;20189;-78
2022/12/18 00:05:28;;;;;;;26.57;13.00;;;;;;;-9.25;100.00;100427.69;4908263;28;20196;-77
2022/12/18 00:08:03;;;;;;;24.00;12.13;;;;;;;-9.19;100.00;100435.59;5013005;28;20695;-77
2022/12/18 00:10:36;;;;;;;28.40;14.70;;;;;;;-9.02;100.00;100436.19;5078736;28;20199;-78
2022/12/18 00:13:04;;;;;;;33.30;14.70;;;;;;;-8.99;100.00;100431.16;5104348;28;20202;-77
2022/12/18 00:15:40;;;;;;;30.37;14.13;;;;;;;-9.05;100.00;100430.97;5045033;28;20197;-77
2022/12/18 00:18:11;;;;;;;29.30;13.63;;;;;;;-9.16;100.00;100428.03;5048140;28;20239;-78
2022/12/18 00:20:47;;;;;;;32.60;14.97;;;;;;;-9.16;100.00;100425.47;5048579;28;20306;-78
2022/12/18 00:23:16;;;;;;;35.10;15.43;;;;;;;-9.07;100.00;100422.31;5059971;28;20215;-78
2022/12/18 00:25:44;;;;;;;33.97;14.57;;;;;;;-9.11;100.00;100417.91;5091200;28;20196;-78
2022/12/18 00:28:13;;;;;;;33.60;15.50;;;;;;;-9.14;100.00;100420.38;5088902;28;20211;-78
2022/12/18 00:30:41;;;;;;;32.47;15.33;;;;;;;-9.05;100.00;100428.41;5087025;28;20203;-77
2022/12/18 00:33:09;;;;;;;32.67;13.87;;;;;;;-9.05;100.00;100428.41;5104918;27;20697;-78
2022/12/18 00:35:38;;;;;;;27.73;13.00;;;;;;;-9.01;100.00;100433.66;5150239;27;20189;-78
2022/12/18 00:38:07;;;;;;;27.57;13.90;;;;;;;-9.02;100.00;100437.06;5149468;27;20214;-78
2022/12/18 00:40:37;;;;;;;26.27;12.57;;;;;;;-9.16;100.00;100432.28;5149967;27;20200;-78
2022/12/18 00:43:05;;;;;;;26.40;12.10;;;;;;;-9.21;100.00;100423.53;5107531;28;20187;-78
2022/12/18 00:45:34;;;;;;;26.50;13.13;;;;;;;-9.13;100.00;100425.56;5103398;28;20203;-78
2022/12/18 00:48:03;;;;;;;24.77;12.20;;;;;;;-9.28;100.00;100431.00;5110690;28;20202;-77
2022/12/18 00:50:32;;;;;;;23.50;11.60;;;;;;;-9.11;100.00;100423.91;5031449;28;20193;-77
2022/12/18 00:53:01;;;;;;;25.97;12.13;;;;;;;-9.14;100.00;100413.53;5022486;28;20209;-77
2022/12/18 00:55:31;;;;;;;28.27;12.10;;;;;;;-9.01;100.00;100419.97;5007167;28;20194;-77
2022/12/18 00:58:00;;;;;;;25.83;11.93;;;;;;;-8.93;100.00;100417.66;5010628;28;20260;-76
2022/12/18 01:00:29;;;;;;;26.87;13.20;;;;;;;-9.06;100.00;100411.25;5014380;28;20247;-77
2022/12/18 01:02:57;;;;;;;28.90;13.03;;;;;;;-9.07;100.00;100418.09;5051415;28;20209;-78
2022/12/18 01:05:26;;;;;;;22.43;10.97;;;;;;;-9.01;100.00;100420.84;5042254;28;20243;-78
2022/12/18 01:07:56;;;;;;;28.73;13.00;;;;;;;-9.10;100.00;100425.66;5050497;28;20235;-78
2022/12/18 01:10:26;;;;;;;24.13;11.37;;;;;;;-9.10;100.00;100430.78;5086315;28;20195;-78
2022/12/18 01:12:57;;;;;;;22.20;10.67;;;;;;;-9.33;100.00;100435.09;5096364;27;20202;-78
2022/12/18 01:15:25;;;;;;;22.40;11.60;;;;;;;-9.44;100.00;100438.97;5071519;28;20200;-78
2022/12/18 01:17:54;;;;;;;25.77;12.33;;;;;;;-9.33;100.00;100434.25;5066905;28;20242;-78
2022/12/18 01:20:23;;;;;;;25.00;11.17;;;;;;;-9.30;100.00;100435.22;5066421;28;20710;-78
2022/12/18 01:22:52;;;;;;;24.90;11.83;;;;;;;-9.20;100.00;100432.97;5066547;28;20218;-78
2022/12/18 01:25:20;;;;;;;25.93;11.87;;;;;;;-9.29;100.00;100442.09;5067813;28;20406;-78
2022/12/18 01:27:50;;;;;;;27.90;12.63;;;;;;;-9.32;100.00;100441.97;5070259;28;20200;-77
2022/12/18 01:30:22;;;;;;;33.57;12.27;;;;;;;-9.20;100.00;100435.53;5063970;28;20208;-78
2022/12/18 01:32:50;;;;;;;25.50;11.63;;;;;;;-9.34;100.00;100435.06;5063904;28;20192;-77
2022/12/18 01:35:21;;;;;;;26.43;11.60;;;;;;;-9.26;100.00;100431.94;5068303;28;20192;-77
2022/12/18 01:37:49;;;;;;;24.57;12.00;;;;;;;-9.22;100.00;100435.50;5047185;28;20192;-78
2022/12/18 01:40:18;;;;;;;24.27;11.67;;;;;;;-9.16;100.00;100433.16;5083343;28;20199;-76
2022/12/18 01:42:51;;;;;;;30.83;12.70;;;;;;;-9.15;100.00;100440.03;5107549;28;20289;-78
2022/12/18 01:45:28;;;;;;;29.30;13.90;;;;;;;-9.11;100.00;100433.28;5104223;28;20195;-79
2022/12/18 01:47:59;;;;;;;29.93;13.70;;;;;;;-9.21;100.00;100428.66;5007238;28;20224;-79
2022/12/18 01:50:35;;;;;;;27.07;11.73;;;;;;;-9.02;100.00;100436.19;5008798;28;20205;-79
2022/12/18 01:53:11;;;;;;;27.40;11.90;;;;;;;-9.02;100.00;100436.19;5005742;28;20234;-79
2022/12/18 01:55:51;;;;;;;23.80;10.80;;;;;;;-9.18;100.00;100432.19;5007716;28;20202;-78
2022/12/18 01:58:24;;;;;;;25.23;11.17;;;;;;;-9.16;100.00;100424.59;5013573;28;20225;-78
2022/12/18 02:00:55;;;;;;;23.87;10.43;;;;;;;-9.08;100.00;100423.13;5007540;28;20232;-77
2022/12/18 02:03:24;;;;;;;22.77;10.83;;;;;;;-9.09;100.00;100424.81;5011886;28;20191;-77
2022/12/18 02:06:04;;;;;;;22.00;11.13;;;;;;;-9.19;100.00;100417.63;5000188;28;20630;-78
2022/12/18 02:08:38;;;;;;;26.30;11.63;;;;;;;-9.34;100.00;100409.41;5003087;28;20202;-78
2022/12/18 02:11:15;;;;;;;28.00;11.93;;;;;;;-9.21;100.00;100416.72;5004391;28;20248;-78
2022/12/18 02:13:50;;;;;;;24.87;11.10;;;;;;;-9.23;100.00;100415.78;5104842;28;20194;-77
2022/12/18 02:16:42;;;;;;;27.53;13.00;;;;;;;-9.29;100.00;100413.00;5123433;27;20186;-77
2022/12/18 02:19:48;;;;;;;29.03;12.47;;;;;;;-9.17;100.00;100417.69;5071326;28;20510;-77
2022/12/18 02:25:44;;;;;;;27.00;13.00;;;;;;;-9.37;100.00;100417.84;5073267;28;20222;-77
2022/12/18 02:28:22;;;;;;;24.17;11.97;;;;;;;-9.30;100.00;100431.78;4980827;28;20202;-77
2022/12/18 02:30:53;;;;;;;27.07;12.13;;;;;;;-9.45;100.00;100426.09;5004732;28;20210;-78
2022/12/18 02:33:24;;;;;;;23.43;11.93;;;;;;;-9.35;100.00;100431.63;5008329;28;20234;-78
2022/12/18 02:35:55;;;;;;;22.70;10.90;;;;;;;-9.43;100.00;100437.28;5008449;28;20197;-77
2022/12/18 02:38:26;;;;;;;22.53;9.97;;;;;;;-9.44;100.00;100431.28;5009274;28;20205;-77
2022/12/18 02:40:55;;;;;;;23.37;10.93;;;;;;;-9.39;100.00;100434.00;4959540;28;20247;-77
2022/12/18 02:43:26;;;;;;;26.03;12.57;;;;;;;-9.58;100.00;100423.06;5016730;28;20292;-77
2022/12/18 02:45:57;;;;;;;24.70;11.10;;;;;;;-9.65;100.00;100421.13;5061542;28;20198;-77
2022/12/18 02:48:32;;;;;;;21.57;10.37;;;;;;;-9.60;100.00;100426.41;5108440;28;20191;-78
2022/12/18 02:51:18;;;;;;;24.77;11.90;;;;;;;-9.83;100.00;100423.00;5116161;28;20186;-77
2022/12/18 02:53:52;;;;;;;24.83;10.73;;;;;;;-9.78;100.00;100430.84;5113962;28;20187;-78
2022/12/18 02:56:27;;;;;;;21.07;10.97;;;;;;;-9.73;100.00;100414.84;5117156;28;20197;-77
2022/12/18 02:59:03;;;;;;;21.93;10.07;;;;;;;-9.81;100.00;100419.66;5114705;28;20223;-77
2022/12/18 03:01:40;;;;;;;24.87;10.70;;;;;;;-9.85;100.00;100420.34;5110804;28;20668;-76
2022/12/18 03:04:15;;;;;;;22.40;10.03;;;;;;;-9.78;100.00;100426.59;5112819;28;20199;-78
2022/12/18 03:06:52;;;;;;;16.77;9.30;;;;;;;-9.77;100.00;100412.09;5092224;28;20228;-78
2022/12/18 03:09:26;;;;;;;16.57;8.30;;;;;;;-9.67;100.00;100420.16;5085056;28;20195;-78
2022/12/18 03:15:06;;;;;;;19.67;9.40;;;;;;;-9.75;100.00;100415.56;5032507;28;20236;-78
2022/12/18 03:17:36;;;;;;;19.27;9.07;;;;;;;-9.73;100.00;100416.53;5078636;28;20203;-78
2022/12/18 03:20:11;;;;;;;18.93;8.77;;;;;;;-9.87;100.00;100427.13;5086876;28;20765;-78
2022/12/18 03:22:42;;;;;;;19.17;9.33;;;;;;;-9.79;100.00;100426.53;5037804;28;20191;-78
2022/12/18 03:25:14;;;;;;;22.07;9.63;;;;;;;-9.81;100.00;100427.34;5098858;28;20187;-78
2022/12/18 03:27:48;;;;;;;25.30;10.37;;;;;;;-9.84;100.00;100423.81;5068227;28;20194;-78
2022/12/18 03:30:19;;;;;;;25.20;10.63;;;;;;;-9.85;100.00;100414.34;5112153;28;20630;-79
2022/12/18 03:32:57;;;;;;;21.77;10.50;;;;;;;-9.86;100.00;100410.91;5104735;28;20245;-78
2022/12/18 03:35:33;;;;;;;23.03;10.50;;;;;;;-9.77;100.00;100409.53;5107518;28;20198;-78
2022/12/18 03:38:03;;;;;;;19.10;9.37;;;;;;;-9.92;100.00;100405.59;5111494;28;20194;-78
2022/12/18 03:40:43;;;;;;;21.00;9.40;;;;;;;-9.77;100.00;100401.84;5107990;28;20738;-78
2022/12/18 03:43:18;;;;;;;17.87;7.90;;;;;;;-9.78;100.00;100408.66;5112163;28;20219;-77
2022/12/18 03:45:54;;;;;;;16.17;7.90;;;;;;;-9.85;100.00;100411.78;5111378;28;20890;-78
2022/12/18 03:48:30;;;;;;;17.43;7.97;;;;;;;-9.86;100.00;100416.03;5111913;28;20191;-78
2022/12/18 03:51:06;;;;;;;17.40;7.80;;;;;;;-9.84;100.00;100406.75;5107781;28;20191;-78
2022/12/18 03:53:44;;;;;;;20.70;9.03;;;;;;;-9.75;100.00;100415.56;5114565;28;20255;-78
2022/12/18 03:56:14;;;;;;;17.03;8.33;;;;;;;-9.79;100.00;100406.03;5112339;28;20683;-78
2022/12/18 03:58:44;;;;;;;17.90;9.27;;;;;;;-9.72;100.00;100400.34;5106858;28;20263;-78
2022/12/18 04:01:18;;;;;;;23.23;9.57;;;;;;;-9.68;100.00;100409.88;5108383;28;20223;-78
2022/12/18 04:03:50;;;;;;;19.13;9.70;;;;;;;-9.64;100.00;100397.22;5119012;27;20198;-78
2022/12/18 04:06:19;;;;;;;19.60;9.40;;;;;;;-9.59;100.00;100402.50;5106164;28;20199;-78
2022/12/18 04:08:48;;;;;;;19.87;9.27;;;;;;;-9.60;100.00;100406.78;5114321;28;20195;-78
2022/12/18 04:11:17;;;;;;;20.67;9.53;;;;;;;-9.56;100.00;100410.31;5107464;28;20207;-78
2022/12/18 04:13:48;;;;;;;20.73;9.87;;;;;;;-9.53;100.00;100408.75;5114192;28;20591;-77
2022/12/18 04:16:19;;;;;;;18.67;9.27;;;;;;;-9.53;100.00;100405.31;5115331;28;20199;-77
2022/12/18 04:18:47;;;;;;;17.47;8.77;;;;;;;-9.52;100.00;100409.63;5109100;28;20281;-77
2022/12/18 04:21:15;;;;;;;23.03;10.00;;;;;;;-9.54;100.00;100409.56;5117435;28;20210;-77
2022/12/18 04:23:44;;;;;;;19.30;9.47;;;;;;;-9.55;100.00;100402.69;5127732;27;20221;-77
2022/12/18 04:26:13;;;;;;;19.17;9.73;;;;;;;-9.65;100.00;100408.31;5151778;27;20211;-78
2022/12/18 04:28:43;;;;;;;22.43;10.67;;;;;;;-9.57;100.00;100409.44;5113677;28;20224;-78
2022/12/18 04:31:12;;;;;;;27.67;10.80;;;;;;;-9.61;100.00;100406.72;5107265;28;20191;-77
2022/12/18 04:33:46;;;;;;;24.53;10.53;;;;;;;-9.61;100.00;100394.78;5113429;28;20183;-78
2022/12/18 04:36:16;;;;;;;20.10;9.73;;;;;;;-9.57;100.00;100396.63;5113145;28;20206;-77
2022/12/18 04:38:47;;;;;;;22.57;10.40;;;;;;;-9.49;100.00;100403.72;5110646;28;20210;-78
2022/12/18 04:41:17;;;;;;;24.53;11.23;;;;;;;-9.53;100.00;100411.31;5108576;28;20657;-77
2022/12/18 04:43:45;;;;;;;21.47;10.27;;;;;;;-9.65;100.00;100400.63;5113124;28;20304;-78
2022/12/18 04:46:14;;;;;;;20.73;10.47;;;;;;;-9.71;100.00;100404.63;5116518;27;20679;-78
2022/12/18 04:48:46;;;;;;;26.47;11.83;;;;;;;-9.67;100.00;100411.59;5113568;27;20209;-77
2022/12/18 04:51:15;;;;;;;23.73;11.03;;;;;;;-9.84;100.00;100404.19;5147198;27;20194;-77
2022/12/18 04:53:43;;;;;;;20.83;10.43;;;;;;;-9.92;100.00;100405.59;5152228;27;20222;-77
2022/12/18 04:56:14;;;;;;;18.97;9.63;;;;;;;-9.93;100.00;100403.84;5149300;27;20198;-78
2022/12/18 04:58:44;;;;;;;16.50;8.23;;;;;;;-9.88;100.00;100404.00;5150154;27;20198;-77
2022/12/18 05:01:14;;;;;;;18.03;8.63;;;;;;;-9.83;100.00;100407.63;5149258;27;20209;-77
2022/12/18 05:03:45;;;;;;;20.47;8.27;;;;;;;-9.87;100.00;100416.88;5142806;27;20269;-78
2022/12/18 05:06:14;;;;;;;17.93;8.40;;;;;;;-9.81;100.00;100411.09;5151620;27;20229;-77
2022/12/18 05:08:43;;;;;;;17.07;7.97;;;;;;;-9.92;100.00;100415.84;5148207;27;20193;-78
2022/12/18 05:11:13;;;;;;;18.77;7.90;;;;;;;-9.84;100.00;100416.13;5152260;27;20186;-77
2022/12/18 05:13:45;;;;;;;15.53;7.90;;;;;;;-9.96;100.00;100420.75;5145467;27;20237;-77
2022/12/18 05:16:15;;;;;;;17.87;8.97;;;;;;;-9.86;100.00;100421.16;5148606;27;20242;-77
2022/12/18 05:18:43;;;;;;;18.10;8.10;;;;;;;-9.93;100.00;100423.47;5151946;27;20190;-78
2022/12/18 05:21:13;;;;;;;16.53;8.37;;;;;;;-9.90;100.00;100429.56;5145002;27;20236;-77
2022/12/18 05:23:41;;;;;;;20.47;9.73;;;;;;;-10.03;100.00;100426.50;5155696;27;20213;-77
2022/12/18 05:26:19;;;;;;;17.57;8.17;;;;;;;-10.00;100.00;100431.72;5148668;27;20608;-77
2022/12/18 05:28:47;;;;;;;17.73;8.93;;;;;;;-9.96;100.00;100428.44;5152865;27;20189;-77
2022/12/18 05:31:16;;;;;;;20.10;8.60;;;;;;;-9.85;100.00;100425.47;5147958;27;20254;-77
2022/12/18 05:33:45;;;;;;;16.50;8.23;;;;;;;-9.89;100.00;100427.88;5148981;27;20190;-77
2022/12/18 05:36:18;;;;;;;14.43;8.17;;;;;;;-9.94;100.00;100416.56;5147363;27;20194;-77
2022/12/18 05:38:46;;;;;;;18.03;8.17;;;;;;;-10.11;100.00;100419.38;5147861;27;20202;-77
2022/12/18 05:41:15;;;;;;;16.60;8.40;;;;;;;-10.07;100.00;100428.03;5151084;27;20209;-77
2022/12/18 05:43:43;;;;;;;17.43;8.07;;;;;;;-10.05;100.00;100421.28;5151548;27;20190;-77
2022/12/18 05:46:16;;;;;;;16.70;7.97;;;;;;;-10.09;100.00;100437.38;5149717;27;20193;-77
2022/12/18 05:48:46;;;;;;;17.73;8.77;;;;;;;-10.10;100.00;100428.81;5155261;27;20242;-77
2022/12/18 05:51:23;;;;;;;17.67;8.30;;;;;;;-10.18;100.00;100422.50;5146389;27;20198;-77
2022/12/18 05:53:53;;;;;;;18.83;8.40;;;;;;;-10.18;100.00;100426.75;5150242;27;20241;-77
2022/12/18 05:56:24;;;;;;;16.07;7.73;;;;;;;-10.19;100.00;100422.44;5129610;27;20655;-77
2022/12/18 05:58:54;;;;;;;16.37;7.80;;;;;;;-10.10;100.00;100427.94;5127929;27;20685;-77
2022/12/18 06:01:24;;;;;;;15.07;8.17;;;;;;;-10.12;100.00;100427.88;5121771;27;20360;-78
2022/12/18 06:03:53;;;;;;;14.83;8.10;;;;;;;-10.21;100.00;100431.78;5128311;27;20225;-77
2022/12/18 06:06:26;;;;;;;13.07;7.20;;;;;;;-10.25;100.00;100423.09;5123976;27;20247;-77
2022/12/18 06:08:55;;;;;;;17.27;8.40;;;;;;;-10.28;100.00;100427.25;5124342;27;20190;-78
2022/12/18 06:11:25;;;;;;;17.43;8.33;;;;;;;-10.18;100.00;100421.63;5123958;27;20297;-78
2022/12/18 06:13:56;;;;;;;17.20;7.97;;;;;;;-10.17;100.00;100423.38;5138043;27;20190;-77
2022/12/18 06:16:28;;;;;;;16.07;7.77;;;;;;;-10.26;100.00;100423.91;5151626;27;20296;-77
2022/12/18 06:18:57;;;;;;;14.37;8.00;;;;;;;-10.31;100.00;100420.31;5067848;28;20229;-78
2022/12/18 06:21:29;;;;;;;18.47;8.47;;;;;;;-10.13;100.00;100427.81;5068729;28;20281;-77
2022/12/18 06:24:01;;;;;;;16.33;8.47;;;;;;;-10.17;100.00;100428.50;5067565;28;20227;-77
2022/12/18 06:26:29;;;;;;;17.27;8.00;;;;;;;-10.13;100.00;100427.81;5070528;28;20192;-77
2022/12/18 06:28:58;;;;;;;16.70;8.47;;;;;;;-10.10;100.00;100431.38;5064004;28;20227;-77
2022/12/18 06:31:26;;;;;;;22.33;9.70;;;;;;;-10.12;100.00;100424.44;5046387;28;20230;-77
2022/12/18 06:33:56;;;;;;;16.70;8.17;;;;;;;-10.06;100.00;100431.47;5047850;28;20199;-77
2022/12/18 06:36:24;;;;;;;19.63;8.97;;;;;;;-10.08;100.00;100426.28;5055163;28;20202;-77
2022/12/18 06:38:55;;;;;;;18.60;8.83;;;;;;;-10.01;100.00;100435.97;5088022;28;20196;-78
2022/12/18 06:41:26;;;;;;;16.43;8.07;;;;;;;-10.04;100.00;100440.97;5047412;28;20312;-78
2022/12/18 06:43:55;;;;;;;17.30;8.27;;;;;;;-9.97;100.00;100436.97;5047847;28;20284;-77
2022/12/18 06:46:27;;;;;;;18.63;8.93;;;;;;;-9.97;100.00;100435.25;5040881;28;20203;-78
2022/12/18 06:48:56;;;;;;;18.80;8.23;;;;;;;-9.95;100.00;100430.19;5045310;28;20200;-77
2022/12/18 06:51:26;;;;;;;16.70;7.70;;;;;;;-9.95;100.00;100435.31;5044732;28;20205;-77
2022/12/18 06:53:56;;;;;;;20.33;8.57;;;;;;;-9.97;100.00;100429.28;5047468;28;20227;-78
2022/12/18 06:56:25;;;;;;;16.30;8.40;;;;;;;-9.99;100.00;100433.47;5066608;28;20286;-78
2022/12/18 06:58:53;;;;;;;16.53;8.17;;;;;;;-10.08;100.00;100445.91;5102747;27;20312;-77
2022/12/18 07:01:23;;;;;;;19.27;9.43;;;;;;;-10.02;100.00;100446.16;5140920;27;20238;-77
2022/12/18 07:03:55;;;;;;;18.07;8.77;;;;;;;-9.94;100.00;100461.03;5141911;27;20197;-77
2022/12/18 07:06:26;;;;;;;17.47;8.93;;;;;;;-10.02;100.00;100461.53;5147748;27;20205;-77
2022/12/18 07:08:56;;;;;;;18.57;8.70;;;;;;;-9.98;100.00;100465.97;5154075;27;20192;-78
2022/12/18 07:11:26;;;;;;;14.57;8.23;;;;;;;-9.95;100.00;100466.94;5153011;27;20193;-77
2022/12/18 07:13:56;;;;;;;16.57;8.33;;;;;;;-10.01;100.00;100476.09;5148601;27;20193;-77
2022/12/18 07:16:25;;;;;;;21.20;9.37;;;;;;;-9.98;100.00;100479.63;5150314;27;20197;-78
2022/12/18 07:18:54;;;;;;;17.60;8.23;;;;;;;-9.97;100.00;100463.44;5140211;27;20660;-77
2022/12/18 07:21:24;;;;;;;18.80;8.83;;;;;;;-10.05;100.00;100464.84;5141494;27;20217;-77
2022/12/18 07:23:56;;;;;;;17.27;8.80;;;;;;;-10.05;100.00;100462.28;5148313;27;20289;-77
2022/12/18 07:26:26;;;;;;;20.57;9.00;;;;;;;-10.13;100.00;100463.69;5146553;27;20197;-77
2022/12/18 07:28:57;;;;;;;18.97;9.00;;;;;;;-10.01;100.00;100459.03;5147153;27;20182;-77
2022/12/18 07:31:26;;;;;;;17.40;8.07;;;;;;;-10.01;100.00;100463.28;5146891;27;20197;-77
2022/12/18 07:33:55;;;;;;;16.30;7.93;;;;;;;-10.01;100.00;100469.28;5106643;28;20219;-77
2022/12/18 07:36:25;;;;;;;15.23;7.53;;;;;;;-9.99;100.00;100469.34;5106065;28;20191;-77
2022/12/18 07:38:55;;;;;;;15.80;7.20;;;;;;;-9.97;100.00;100472.81;5103824;28;20221;-77
2022/12/18 07:41:27;;;;;;;16.57;8.80;;;;;;;-9.96;100.00;100469.44;5103096;28;20198;-77
2022/12/18 07:43:58;;;;;;;19.57;8.53;;;;;;;-9.95;100.00;100477.19;5109046;28;20191;-77
2022/12/18 07:46:27;;;;;;;14.70;8.03;;;;;;;-9.84;100.00;100468.25;5103915;28;20279;-77
2022/12/18 07:48:55;;;;;;;16.77;8.33;;;;;;;-9.81;100.00;100467.50;5114288;28;20191;-76
2022/12/18 07:51:23;;;;;;;16.23;8.43;;;;;;;-9.78;100.00;100464.16;5112890;27;20198;-76
2022/12/18 07:53:52;;;;;;;16.93;9.13;;;;;;;-9.86;100.00;100469.84;5148432;27;20213;-77
2022/12/18 07:56:21;;;;;;;19.40;9.57;;;;;;;-9.74;100.00;100460.91;5149598;27;20201;-77
2022/12/18 07:58:59;;;;;;;100.40;43.93;;;;;;;-9.71;100.00;100467.03;5152579;27;20201;-77
2022/12/18 08:01:30;;;;;;;45.83;22.70;;;;;;;-9.67;100.00;100468.00;5156108;27;20189;-78
2022/12/18 08:03:59;;;;;;;21.60;10.60;;;;;;;-9.54;100.00;100472.78;5151386;27;20198;-77
2022/12/18 08:06:27;;;;;;;18.50;9.80;;;;;;;-9.57;100.00;100467.53;5146756;27;20239;-77
2022/12/18 08:08:57;;;;;;;18.47;9.20;;;;;;;-9.59;100.00;100464.91;5146530;27;20209;-77
2022/12/18 08:11:28;;;;;;;31.07;15.00;;;;;;;-9.48;100.00;100464.44;5148434;27;20193;-77
2022/12/18 08:14:01;;;;;;;30.50;15.87;;;;;;;-9.40;100.00;100458.78;5146796;27;20254;-77
2022/12/18 08:16:30;;;;;;;19.73;9.30;;;;;;;-9.50;100.00;100453.25;5147785;27;20270;-77
2022/12/18 08:18:58;;;;;;;38.23;15.67;;;;;;;-9.21;100.00;100454.31;5144029;27;20252;-77
2022/12/18 08:21:30;;;;;;;56.97;23.27;;;;;;;-8.97;100.00;100456.06;5148318;27;20181;-77
2022/12/18 08:24:00;;;;;;;47.83;21.33;;;;;;;-9.03;100.00;100447.28;5156612;27;20684;-76
2022/12/18 08:26:31;;;;;;;37.80;17.90;;;;;;;-8.99;100.00;100441.41;5154838;27;20640;-76
2022/12/18 08:29:03;;;;;;;31.03;16.43;;;;;;;-9.08;100.00;100431.69;5155507;27;20243;-78
2022/12/18 08:31:32;;;;;;;27.67;13.37;;;;;;;-8.98;100.00;100422.63;5151432;27;20219;-77
2022/12/18 08:34:01;;;;;;;26.60;12.40;;;;;;;-8.77;100.00;100419.94;5147244;27;20223;-77
2022/12/18 08:36:30;;;;;;;23.63;12.23;;;;;;;-8.50;100.00;100420.81;5145684;27;20186;-76
2022/12/18 08:38:59;;;;;;;20.73;11.67;;;;;;;-8.37;100.00;100412.72;5150003;27;20254;-77
2022/12/18 08:41:28;;;;;;;22.87;12.50;;;;;;;-8.29;100.00;100412.06;5146903;27;20206;-76
2022/12/18 08:46:45;;;;;;;20.93;11.37;;;;;;;-8.01;100.00;100414.63;5153793;27;20190;-77
2022/12/18 08:49:14;;;;;;;28.27;12.30;;;;;;;-7.95;100.00;100416.53;5146653;27;20272;-77
2022/12/18 08:51:42;;;;;;;22.93;11.07;;;;;;;-7.91;100.00;100410.63;5146086;27;20194;-77
2022/12/18 08:54:13;;;;;;;116.40;54.27;;;;;;;-7.78;100.00;100412.78;5148555;27;20258;-78
2022/12/18 08:56:42;;;;;;;144.20;73.43;;;;;;;-7.64;100.00;100413.16;5156618;27;20215;-77
2022/12/18 08:59:12;;;;;;;95.77;49.53;;;;;;;-7.40;100.00;100419.03;5088937;28;20252;-77
2022/12/18 09:01:50;;;;;;;54.93;32.20;;;;;;;-7.30;100.00;100412.44;5089592;28;20187;-78
2022/12/18 09:04:20;;;;;;;32.77;20.50;;;;;;;-7.04;100.00;100414.03;5092240;28;20227;-78
2022/12/18 09:06:49;;;;;;;25.43;14.00;;;;;;;-6.81;100.00;100409.47;5087647;28;20693;-78
2022/12/18 09:09:20;;;;;;;23.53;13.37;;;;;;;-6.54;100.00;100400.69;5092432;28;20237;-77
2022/12/18 09:11:48;;;;;;;23.47;13.50;;;;;;;-6.46;100.00;100406.91;5089399;28;20215;-78
2022/12/18 09:14:17;;;;;;;31.20;16.63;;;;;;;-6.31;100.00;100399.53;5087224;28;20196;-78
2022/12/18 09:16:47;;;;;;;30.43;17.47;;;;;;;-6.00;100.00;100411.41;5103846;27;20197;-78
2022/12/18 09:19:19;;;;;;;35.43;18.73;;;;;;;-5.71;100.00;100418.91;5149779;27;20258;-78
2022/12/18 09:21:47;;;;;;;32.50;18.40;;;;;;;-5.62;100.00;100419.09;5145175;27;20254;-78
2022/12/18 09:24:16;;;;;;;25.50;14.00;;;;;;;-5.78;100.00;100423.94;5148570;27;20554;-78
2022/12/18 09:26:46;;;;;;;28.77;14.53;;;;;;;-5.81;100.00;100423.84;5154898;27;20226;-77
2022/12/18 09:29:15;;;;;;;28.23;14.47;;;;;;;-5.62;100.00;100416.53;5145698;27;20239;-77
2022/12/18 09:31:49;;;;;;;30.70;16.30;;;;;;;-5.47;100.00;100406.53;5144204;27;20644;-78
2022/12/18 09:34:21;;;;;;;34.10;18.00;;;;;;;-5.19;100.00;100421.72;5147022;27;20198;-78
2022/12/18 09:36:51;;;;;;;38.67;20.90;;;;;;;-4.82;100.00;100417.28;5101179;27;20202;-78
2022/12/18 09:39:19;;;;;;;33.17;18.83;;;;;;;-4.62;100.00;100423.66;5153997;27;20254;-78
2022/12/18 09:41:54;;;;;;;28.93;14.90;;;;;;;-4.55;100.00;100418.56;5148353;27;20228;-78
2022/12/18 09:44:26;;;;;;;28.80;15.03;;;;;;;-4.33;100.00;100418.09;5154831;27;20261;-78
2022/12/18 09:47:05;;;;;;;28.37;15.90;;;;;;;-4.32;100.00;100419.84;5146834;27;20190;-78
2022/12/18 09:49:39;;;;;;;30.33;15.67;;;;;;;-4.15;100.00;100415.81;5154559;27;20185;-78
2022/12/18 09:52:14;;;;;;;27.43;16.70;;;;;;;-4.07;100.00;100416.78;5150961;27;20196;-78
2022/12/18 09:54:47;;;;;;;34.40;20.10;;;;;;;-3.78;100.00;100421.50;5154630;27;20190;-78
2022/12/18 09:57:20;;;;;;;40.00;24.17;;;;;;;-3.58;100.00;100411.44;5149766;27;20197;-78
2022/12/18 09:59:54;;;;;;;38.00;22.07;;;;;;;-3.39;100.00;100416.00;5147482;27;20193;-77
2022/12/18 10:02:25;;;;;;;32.50;17.20;;;;;;;-3.40;100.00;100431.53;5148171;27;20193;-78
2022/12/18 10:05:10;;;;;;;27.87;15.30;;;;;;;-3.47;100.00;100422.81;5149294;27;20375;-78
2022/12/18 10:07:51;;;;;;;24.33;13.27;;;;;;;-3.23;100.00;100422.25;5150411;27;20190;-78
2022/12/18 10:10:32;;;;;;;18.57;11.47;;;;;;;-3.24;100.00;100418.78;5150181;27;20181;-78
2022/12/18 10:13:12;;;;;;;20.13;12.47;;;;;;;-2.95;100.00;100420.84;5149555;27;20234;-78
2022/12/18 10:15:51;;;;;;;20.53;11.47;;;;;;;-2.93;100.00;100424.31;5148436;27;20189;-78
2022/12/18 10:18:37;;;;;;;34.80;21.17;;;;;;;-3.03;100.00;100404.34;5162089;27;20185;-80
2022/12/18 10:21:13;;;;;;;29.73;17.07;;;;;;;-3.00;100.00;100402.63;5174346;27;20195;-78
2022/12/18 10:23:50;;;;;;;30.70;17.03;;;;;;;-2.85;100.00;100401.94;5169923;27;20217;-78
2022/12/18 10:26:19;;;;;;;22.90;13.23;;;;;;;-2.71;100.00;100389.97;5163608;27;20200;-78
2022/12/18 10:28:49;;;;;;;22.73;12.40;;;;;;;-2.70;100.00;100391.72;5169032;27;20224;-78
2022/12/18 10:31:19;;;;;;;19.30;11.43;;;;;;;-2.63;100.00;100382.25;5126397;27;20671;-78
2022/12/18 10:33:53;;;;;;;22.13;11.87;;;;;;;-2.42;100.00;100384.16;5130052;27;20698;-78
2022/12/18 10:36:26;;;;;;;20.07;10.93;;;;;;;-2.23;100.00;100377.41;5124662;27;20194;-79
2022/12/18 10:39:16;;;;;;;21.17;12.13;;;;;;;-2.24;100.00;100384.31;5129190;27;20224;-78
2022/12/18 10:41:45;;;;;;;20.50;12.53;;;;;;;-1.91;100.00;100388.00;5125431;27;20224;-78
2022/12/18 10:44:18;;;;;;;20.53;12.00;;;;;;;-2.04;100.00;100384.44;5127622;27;20645;-78
2022/12/18 10:46:50;;;;;;;21.20;11.57;;;;;;;-2.12;100.00;100384.44;5130132;27;20217;-78
2022/12/18 10:49:28;;;;;;;18.20;11.53;;;;;;;-2.42;100.00;100376.38;5140202;27;20205;-78
2022/12/18 10:52:15;;;;;;;17.30;10.60;;;;;;;-2.09;100.00;100378.38;5175147;27;20185;-78
2022/12/18 10:54:49;;;;;;;16.73;10.37;;;;;;;-2.29;100.00;100370.44;5166862;27;20696;-78
2022/12/18 10:57:34;;;;;;;21.00;10.47;;;;;;;-2.39;100.00;100376.44;5170284;27;20193;-78
2022/12/18 11:00:24;;;;;;;17.23;9.73;;;;;;;-2.62;100.00;100376.22;5172124;27;20362;-78
2022/12/18 11:02:53;;;;;;;23.07;11.23;;;;;;;-2.53;100.00;100378.03;5169872;27;20197;-78
2022/12/18 11:05:31;;;;;;;23.10;11.90;;;;;;;-2.54;100.00;100381.47;5167613;27;20189;-78
2022/12/18 11:08:02;;;;;;;21.10;11.97;;;;;;;-2.16;100.00;100389.56;5168017;27;20237;-78
2022/12/18 11:10:33;;;;;;;19.87;12.10;;;;;;;-2.45;100.00;100387.59;5174846;27;20197;-78
2022/12/18 11:13:14;;;;;;;22.27;9.83;;;;;;;-2.26;100.00;100379.97;5172428;27;20216;-78
2022/12/18 11:15:43;;;;;;;25.93;13.33;;;;;;;-2.15;100.00;100378.31;5170966;27;20635;-78
2022/12/18 11:18:19;;;;;;;21.83;12.63;;;;;;;-1.85;100.00;100370.72;5172792;27;20203;-78
2022/12/18 11:20:53;;;;;;;24.67;14.20;;;;;;;-1.90;100.00;100358.59;5173511;27;20244;-78
2022/12/18 11:23:28;;;;;;;29.10;17.10;;;;;;;-1.76;100.00;100350.00;5176962;27;20395;-77
2022/12/18 11:26:00;;;;;;;20.70;12.83;;;;;;;-1.77;100.00;100345.66;5177184;27;20275;-77
2022/12/18 11:28:39;;;;;;;21.77;13.23;;;;;;;-1.57;100.00;100327.56;5180034;27;20245;-78
2022/12/18 11:31:27;;;;;;;25.53;12.37;;;;;;;-2.04;100.00;100325.63;5173421;27;20193;-78
2022/12/18 11:34:01;;;;;;;24.23;13.50;;;;;;;-1.87;100.00;100328.31;5173709;27;20201;-78